Lower Chichester, Pennsylvania
Current Conditions -  °F | °C
As of 10:54 PM on Saturday 22 Nov 2014 (Local Time) from KPHL Reporting Station
Broken Clouds Broken Clouds  
Wind Chill: 35°   Ceiling: 12000
Heat Index: 42°   Visibility: 10mi
Dew Point: 23°   Wind: 13mph
Humidity: 47%   Direction: 190°S
Pressure: 30.26"   Gusts: NA
Location:  39.8393°N, 75.4661°W
Report Text: KPHL 230354Z 19011KT 10SM BKN120 06/M05 A3026 RMK AO2 SLP244 T00561050 $
Loading
Personal Weather Stations






























Interactive Weather Map New forecast layout! Learn more

10-Day Weather Forecast

Advertisements
Track Severe Weather on mobile